createdAt,value
2024-05-09T00:00:42.545Z,74.69
2024-05-09T00:03:11.052Z,74.61
2024-05-09T00:05:43.662Z,74.55
2024-05-09T00:08:11.628Z,74.51
2024-05-09T00:10:40.032Z,74.72
2024-05-09T00:13:09.621Z,74.53
2024-05-09T00:15:37.323Z,74.18
2024-05-09T00:18:06.646Z,73.98
2024-05-09T00:20:38.927Z,73.98
2024-05-09T00:23:13.576Z,74.28
2024-05-09T00:25:44.434Z,74.32
2024-05-09T00:28:12.815Z,74.55
2024-05-09T00:30:40.173Z,74.50
2024-05-09T00:33:09.222Z,74.40
2024-05-09T00:35:38.411Z,74.60
2024-05-09T00:38:06.006Z,74.50
2024-05-09T00:40:41.780Z,74.57
2024-05-09T00:43:12.108Z,74.13
2024-05-09T00:45:40.091Z,74.11
2024-05-09T00:48:09.377Z,73.88
2024-05-09T00:50:41.417Z,74.16
2024-05-09T00:53:15.634Z,74.25
2024-05-09T00:55:44.852Z,74.11
2024-05-09T00:58:17.853Z,74.05
2024-05-09T01:00:45.216Z,73.70
2024-05-09T01:03:13.892Z,73.39
2024-05-09T01:05:43.668Z,73.24
2024-05-09T01:08:11.942Z,73.35
2024-05-09T01:10:41.719Z,73.64
2024-05-09T01:13:11.092Z,74.04
2024-05-09T01:15:38.184Z,73.86
2024-05-09T01:18:11.641Z,73.90
2024-05-09T01:20:42.991Z,73.58
2024-05-09T01:23:14.386Z,73.92
2024-05-09T01:25:44.032Z,73.95
2024-05-09T01:28:11.458Z,74.54
2024-05-09T01:30:38.832Z,74.52
2024-05-09T01:33:08.560Z,74.58
2024-05-09T01:35:38.689Z,74.69
2024-05-09T01:38:06.566Z,74.62
2024-05-09T01:40:38.558Z,74.52
2024-05-09T01:43:11.376Z,74.90
2024-05-09T01:45:40.487Z,74.62
2024-05-09T01:48:09.815Z,74.63
2024-05-09T01:50:41.328Z,74.42
2024-05-09T01:53:14.710Z,74.54
2024-05-09T01:55:43.034Z,74.37
2024-05-09T01:58:10.510Z,74.43
2024-05-09T02:00:41.336Z,74.34
2024-05-09T02:03:14.789Z,74.37
2024-05-09T02:05:46.595Z,74.31
2024-05-09T02:08:19.356Z,74.03
2024-05-09T02:10:48.650Z,74.02
2024-05-09T02:13:16.529Z,73.76
2024-05-09T02:15:44.026Z,74.07
2024-05-09T02:18:11.476Z,73.80
2024-05-09T02:20:40.913Z,73.79
2024-05-09T02:23:09.290Z,73.77
2024-05-09T02:25:36.520Z,74.24
2024-05-09T02:28:03.792Z,74.27
2024-05-09T02:30:39.249Z,74.08
2024-05-09T02:33:11.292Z,74.22
2024-05-09T02:35:40.971Z,74.33
2024-05-09T02:38:09.650Z,74.23
2024-05-09T02:40:39.004Z,74.43
2024-05-09T02:43:08.570Z,74.38
2024-05-09T02:45:36.881Z,74.19
2024-05-09T02:48:04.359Z,74.35
2024-05-09T02:50:37.869Z,74.32
2024-05-09T02:53:07.975Z,74.45
2024-05-09T02:55:35.523Z,74.63
2024-05-09T02:58:02.611Z,74.24
2024-05-09T03:00:37.835Z,74.15
2024-05-09T03:03:08.976Z,74.10
2024-05-09T03:05:37.478Z,74.08
2024-05-09T03:08:05.072Z,74.11
2024-05-09T03:10:36.202Z,73.78
2024-05-09T03:13:09.266Z,73.94
2024-05-09T03:15:36.571Z,74.00
2024-05-09T03:18:05.319Z,74.19
2024-05-09T03:20:35.071Z,74.67
2024-05-09T03:23:05.346Z,74.73
2024-05-09T03:25:33.305Z,74.77
2024-05-09T03:28:00.668Z,74.73
2024-05-09T03:30:38.643Z,74.87
2024-05-09T03:33:13.493Z,74.83
2024-05-09T03:35:42.913Z,74.77
2024-05-09T03:38:10.591Z,74.76
2024-05-09T03:40:48.856Z,74.72
2024-05-09T03:43:17.465Z,74.94
2024-05-09T03:45:45.639Z,74.96
2024-05-09T03:48:13.194Z,74.88
2024-05-09T03:50:40.752Z,74.84
2024-05-09T03:53:11.411Z,74.85
2024-05-09T03:55:38.960Z,75.27
2024-05-09T03:58:09.435Z,75.03
2024-05-09T04:00:39.226Z,75.22
2024-05-09T04:03:10.314Z,74.93
2024-05-09T04:05:40.838Z,75.07
2024-05-09T04:08:10.091Z,75.08
2024-05-09T04:10:37.596Z,75.29
2024-05-09T04:13:04.820Z,75.15
2024-05-09T04:15:32.387Z,74.85
2024-05-09T04:18:01.026Z,74.36
2024-05-09T04:20:36.658Z,74.28
2024-05-09T04:23:08.627Z,74.19
2024-05-09T04:25:37.748Z,74.15
2024-05-09T04:28:05.378Z,74.24
2024-05-09T04:30:38.570Z,74.46
2024-05-09T04:33:11.804Z,74.84
2024-05-09T04:35:45.047Z,75.08
2024-05-09T04:38:13.795Z,75.06
2024-05-09T04:40:41.469Z,75.37
2024-05-09T04:43:15.862Z,75.09
2024-05-09T04:45:43.205Z,75.39
2024-05-09T04:48:11.142Z,75.52
2024-05-09T04:50:39.645Z,75.37
2024-05-09T04:53:09.554Z,75.57
2024-05-09T04:55:37.949Z,75.45
2024-05-09T04:58:08.247Z,75.83
2024-05-09T05:00:37.527Z,76.17
2024-05-09T05:03:10.127Z,76.43
2024-05-09T05:05:40.885Z,76.50
2024-05-09T05:08:15.496Z,76.48
2024-05-09T05:10:43.964Z,76.80
2024-05-09T05:13:25.013Z,76.90
2024-05-09T05:15:56.970Z,77.08
2024-05-09T05:18:26.642Z,77.10
2024-05-09T05:20:55.561Z,77.04
2024-05-09T05:23:24.001Z,77.68
2024-05-09T05:25:54.625Z,78.24
2024-05-09T05:28:22.481Z,78.38
2024-05-09T05:30:49.709Z,78.52
2024-05-09T05:33:20.271Z,78.58
2024-05-09T05:35:47.672Z,78.60
2024-05-09T05:38:15.523Z,78.43
2024-05-09T05:40:42.797Z,78.73
2024-05-09T05:43:16.902Z,78.78
2024-05-09T05:45:44.208Z,78.80
2024-05-09T05:48:13.390Z,78.71
2024-05-09T05:50:40.544Z,79.00
2024-05-09T05:53:08.875Z,79.08
2024-05-09T05:55:37.685Z,79.00
2024-05-09T05:58:05.165Z,78.85
2024-05-09T06:03:02.336Z,79.19
2024-05-09T06:05:29.503Z,78.95
2024-05-09T06:07:56.587Z,79.35
2024-05-09T06:10:29.671Z,79.10
2024-05-09T06:13:02.155Z,78.96
2024-05-09T06:15:29.150Z,78.94
2024-05-09T06:17:56.298Z,78.74
2024-05-09T06:20:31.059Z,79.11
2024-05-09T06:23:03.097Z,78.96
2024-05-09T06:25:30.356Z,78.79
2024-05-09T06:27:57.451Z,78.66
2024-05-09T06:30:30.913Z,78.60
2024-05-09T06:33:06.090Z,78.68
2024-05-09T06:35:34.125Z,78.60
2024-05-09T06:38:01.766Z,78.08
2024-05-09T06:40:36.885Z,78.06
2024-05-09T06:43:18.232Z,77.54
2024-05-09T06:45:48.553Z,77.66
2024-05-09T06:48:19.748Z,77.81
2024-05-09T06:50:47.928Z,77.72
2024-05-09T06:53:16.791Z,77.82
2024-05-09T06:55:43.962Z,78.12
2024-05-09T06:58:11.062Z,78.10
2024-05-09T07:00:41.030Z,78.07
2024-05-09T07:03:16.064Z,77.86
2024-05-09T07:05:46.670Z,77.80
2024-05-09T07:08:15.080Z,78.20
2024-05-09T07:10:42.269Z,78.02
2024-05-09T07:13:13.198Z,77.73
2024-05-09T07:15:41.028Z,77.43
2024-05-09T07:18:17.305Z,76.92
2024-05-09T07:20:46.328Z,76.69
2024-05-09T07:23:13.802Z,76.22
2024-05-09T07:25:41.778Z,75.95
2024-05-09T07:28:17.241Z,75.48
2024-05-09T07:30:45.125Z,75.44
2024-05-09T07:33:20.326Z,74.78
2024-05-09T07:35:49.078Z,74.60
2024-05-09T07:38:16.283Z,74.53
2024-05-09T07:40:43.509Z,74.43
2024-05-09T07:43:19.807Z,73.86
2024-05-09T07:45:52.568Z,73.92
2024-05-09T07:52:38.126Z,73.01
2024-05-09T07:53:46.940Z,73.28
2024-05-09T07:56:17.758Z,73.23
2024-05-09T07:58:45.430Z,72.17
2024-05-09T08:01:12.796Z,70.09
2024-05-09T08:03:40.150Z,69.15
2024-05-09T08:06:07.354Z,69.60
2024-05-09T08:08:34.413Z,71.40
2024-05-09T08:11:02.614Z,70.88
2024-05-09T08:13:29.800Z,71.66
2024-05-09T08:15:56.915Z,71.16
2024-05-09T08:18:24.146Z,69.63
2024-05-09T08:20:52.230Z,70.61
2024-05-09T08:23:19.393Z,70.54
2024-05-09T08:25:46.442Z,70.28
2024-05-09T08:28:15.163Z,67.65
2024-05-09T08:30:42.928Z,65.85
2024-05-09T08:33:10.613Z,67.03
2024-05-09T08:35:37.792Z,66.94
2024-05-09T08:38:06.508Z,67.61
2024-05-09T08:40:36.636Z,66.49
2024-05-09T08:43:09.263Z,66.06
2024-05-09T08:45:41.939Z,66.50
2024-05-09T08:48:13.105Z,65.86
2024-05-09T08:50:41.311Z,66.99
2024-05-09T08:53:09.214Z,66.28
2024-05-09T08:55:40.713Z,65.79
2024-05-09T08:58:16.454Z,64.53
2024-05-09T09:00:45.380Z,64.52
2024-05-09T09:03:17.436Z,65.02
2024-05-09T09:06:11.878Z,65.64
2024-05-09T09:08:42.408Z,64.93
2024-05-09T09:11:09.596Z,64.40
2024-05-09T09:13:36.601Z,64.13
2024-05-09T09:16:04.210Z,63.33
2024-05-09T09:18:32.782Z,63.94
2024-05-09T09:21:01.135Z,61.81
2024-05-09T09:23:29.735Z,62.03
2024-05-09T09:26:00.575Z,64.06
2024-05-09T09:28:28.113Z,62.95
2024-05-09T09:31:01.342Z,61.06
2024-05-09T09:33:31.223Z,60.20
2024-05-09T09:35:58.430Z,59.60
2024-05-09T09:38:31.299Z,59.72
2024-05-09T09:41:01.325Z,59.50
2024-05-09T09:43:29.394Z,58.99
2024-05-09T09:45:59.844Z,59.18
2024-05-09T09:48:29.028Z,59.57
2024-05-09T09:50:57.183Z,56.94
2024-05-09T09:53:24.755Z,57.32
2024-05-09T09:55:53.498Z,57.68
2024-05-09T09:58:21.563Z,58.39
2024-05-09T10:00:48.805Z,58.98
2024-05-09T10:03:16.170Z,59.32
2024-05-09T10:05:46.454Z,61.66
2024-05-09T10:08:16.615Z,59.05
2024-05-09T10:10:50.105Z,59.42
2024-05-09T10:13:17.881Z,58.31
2024-05-09T10:15:52.650Z,58.52
2024-05-09T10:18:28.147Z,56.44
2024-05-09T10:20:57.694Z,58.80
2024-05-09T10:23:36.191Z,56.71
2024-05-09T10:26:05.893Z,56.28
2024-05-09T10:28:39.336Z,58.53
2024-05-09T10:31:14.802Z,56.53
2024-05-09T10:33:51.533Z,56.00
2024-05-09T10:36:28.844Z,53.17
2024-05-09T10:38:56.112Z,51.96
2024-05-09T10:41:24.006Z,52.44
2024-05-09T10:43:52.070Z,50.94
2024-05-09T10:46:19.813Z,50.23
2024-05-09T10:48:48.250Z,51.46
2024-05-09T10:51:18.107Z,52.00
2024-05-09T10:53:47.113Z,53.24
2024-05-09T10:56:15.087Z,51.43
2024-05-09T10:58:42.458Z,50.50
2024-05-09T11:01:10.771Z,51.70
2024-05-09T11:03:39.506Z,51.51
2024-05-09T11:06:08.117Z,53.05
2024-05-09T11:08:36.982Z,51.49
2024-05-09T11:11:07.117Z,53.21
2024-05-09T11:13:39.111Z,51.32
2024-05-09T11:16:19.751Z,49.98
2024-05-09T11:18:57.894Z,50.36
2024-05-09T11:21:25.419Z,50.54
2024-05-09T11:23:52.837Z,51.78
2024-05-09T11:26:21.852Z,51.77
2024-05-09T11:28:50.389Z,50.30
2024-05-09T11:31:18.029Z,50.57
2024-05-09T11:33:48.208Z,49.72
2024-05-09T11:36:16.619Z,47.64
2024-05-09T11:38:43.810Z,49.34
2024-05-09T11:41:17.854Z,50.12
2024-05-09T11:43:44.850Z,49.42
2024-05-09T11:46:12.219Z,49.76
2024-05-09T11:48:40.059Z,50.85
2024-05-09T11:51:07.415Z,50.24
2024-05-09T11:53:34.457Z,50.54
2024-05-09T11:56:02.631Z,51.14
2024-05-09T11:58:34.226Z,49.37
2024-05-09T12:01:01.975Z,49.20
2024-05-09T12:03:29.574Z,50.28
2024-05-09T12:05:56.903Z,51.08
2024-05-09T12:08:24.040Z,50.91
2024-05-09T12:10:51.305Z,51.34
2024-05-09T12:13:18.470Z,50.41
2024-05-09T12:15:45.631Z,49.43
2024-05-09T12:18:12.848Z,49.72
2024-05-09T12:20:40.391Z,50.74
2024-05-09T12:23:09.733Z,51.11
2024-05-09T12:25:40.624Z,52.32
2024-05-09T12:28:08.267Z,52.82
2024-05-09T12:30:39.996Z,53.21
2024-05-09T12:33:11.324Z,52.71
2024-05-09T12:35:39.797Z,53.30
2024-05-09T12:38:06.892Z,53.81
2024-05-09T12:40:37.280Z,53.70
2024-05-09T12:43:08.324Z,53.86
2024-05-09T12:45:36.552Z,53.85
2024-05-09T12:48:06.816Z,54.35
2024-05-09T12:50:34.788Z,53.92
2024-05-09T12:53:03.877Z,53.96
2024-05-09T12:55:41.237Z,53.71
2024-05-09T12:58:17.575Z,53.16
2024-05-09T13:00:45.502Z,53.57
2024-05-09T13:03:13.122Z,54.34
2024-05-09T13:05:45.149Z,52.57
2024-05-09T13:08:13.040Z,54.01
2024-05-09T13:10:40.256Z,54.96
2024-05-09T13:13:10.139Z,53.15
2024-05-09T13:15:37.868Z,53.94
2024-05-09T13:18:06.702Z,53.77
2024-05-09T13:20:36.518Z,53.66
2024-05-09T13:23:06.657Z,50.79
2024-05-09T13:25:35.195Z,52.33
2024-05-09T13:28:03.774Z,52.79
2024-05-09T13:30:39.122Z,52.88
2024-05-09T13:33:11.382Z,53.95
2024-05-09T13:35:45.001Z,51.92
2024-05-09T13:38:16.064Z,52.14
2024-05-09T13:40:43.137Z,52.94
2024-05-09T13:43:10.247Z,52.95
2024-05-09T13:45:37.330Z,53.67
2024-05-09T13:48:06.540Z,53.67
2024-05-09T13:50:36.264Z,54.48
2024-05-09T13:53:06.691Z,53.56
2024-05-09T13:55:37.487Z,53.05
2024-05-09T13:58:04.922Z,52.50
2024-05-09T14:00:42.848Z,52.54
2024-05-09T14:03:15.419Z,52.66
2024-05-09T14:05:43.504Z,53.20
2024-05-09T14:08:11.656Z,53.54
2024-05-09T14:10:44.492Z,54.92
2024-05-09T14:13:12.986Z,53.30
2024-05-09T14:15:40.802Z,53.44
2024-05-09T14:18:12.428Z,53.87
2024-05-09T14:20:41.406Z,53.41
2024-05-09T14:23:08.798Z,53.45
2024-05-09T14:25:38.976Z,53.46
2024-05-09T14:28:09.996Z,53.49
2024-05-09T14:30:38.579Z,54.69
2024-05-09T14:33:07.798Z,54.05
2024-05-09T14:35:37.119Z,53.33
2024-05-09T14:38:04.919Z,53.76
2024-05-09T14:40:40.482Z,52.72
2024-05-09T14:43:15.270Z,53.22
2024-05-09T14:45:46.274Z,53.55
2024-05-09T14:48:15.423Z,53.50
2024-05-09T14:50:42.812Z,53.03
2024-05-09T14:53:12.055Z,53.91
2024-05-09T14:55:41.491Z,53.71
2024-05-09T14:58:11.044Z,53.92
2024-05-09T15:00:45.633Z,53.22
2024-05-09T15:03:20.809Z,53.64
2024-05-09T15:05:50.092Z,52.41
2024-05-09T15:08:19.420Z,51.81
2024-05-09T15:10:49.585Z,52.56
2024-05-09T15:13:18.027Z,51.60
2024-05-09T15:15:45.371Z,50.58
2024-05-09T15:18:14.248Z,50.81
2024-05-09T15:20:43.068Z,49.45
2024-05-09T15:23:10.398Z,51.47
2024-05-09T15:25:37.406Z,52.55
2024-05-09T15:28:08.177Z,52.76
2024-05-09T15:30:36.385Z,52.85
2024-05-09T15:33:04.379Z,53.19
2024-05-09T15:35:32.056Z,53.63
2024-05-09T15:38:00.169Z,54.25
2024-05-09T15:40:36.072Z,53.81
2024-05-09T15:43:09.756Z,53.99
2024-05-09T15:45:38.627Z,53.48
2024-05-09T15:48:08.029Z,52.84
2024-05-09T15:50:39.421Z,52.82
2024-05-09T15:53:10.300Z,53.46
2024-05-09T15:55:38.031Z,53.78
2024-05-09T15:58:06.432Z,54.06
2024-05-09T16:00:39.149Z,52.87
2024-05-09T16:03:10.479Z,53.48
2024-05-09T16:05:38.360Z,53.57
2024-05-09T16:08:07.178Z,52.87
2024-05-09T16:10:35.329Z,51.93
2024-05-09T16:13:03.765Z,51.66
2024-05-09T16:15:31.542Z,51.22
2024-05-09T16:17:59.508Z,51.35
2024-05-09T16:20:34.982Z,52.80
2024-05-09T16:23:08.180Z,53.85
2024-05-09T16:25:35.946Z,54.72
2024-05-09T16:28:06.391Z,54.07
2024-05-09T16:30:36.586Z,54.17
2024-05-09T16:33:05.185Z,54.08
2024-05-09T16:35:34.311Z,54.21
2024-05-09T16:38:03.392Z,53.95
2024-05-09T16:40:37.797Z,50.69
2024-05-09T16:43:09.133Z,50.53
2024-05-09T16:45:37.612Z,50.56
2024-05-09T16:48:06.444Z,48.60
2024-05-09T16:50:35.360Z,49.49
2024-05-09T16:53:05.211Z,47.55
2024-05-09T16:55:33.104Z,47.17
2024-05-09T16:58:01.050Z,46.95
2024-05-09T17:00:38.412Z,48.28
2024-05-09T17:03:11.630Z,47.77
2024-05-09T17:05:40.280Z,47.63
2024-05-09T17:08:08.190Z,47.84
2024-05-09T17:10:38.056Z,47.98
2024-05-09T17:13:07.336Z,47.85
2024-05-09T17:15:37.125Z,48.06
2024-05-09T17:18:07.221Z,49.04
2024-05-09T17:20:36.901Z,49.40
2024-05-09T17:23:12.209Z,49.72
2024-05-09T17:25:40.055Z,50.65
2024-05-09T17:28:08.682Z,50.95
2024-05-09T17:30:38.618Z,50.55
2024-05-09T17:33:09.606Z,50.68
2024-05-09T17:35:38.003Z,50.80
2024-05-09T17:38:06.276Z,50.59
2024-05-09T17:40:36.363Z,50.66
2024-05-09T17:43:08.005Z,51.48
2024-05-09T17:45:40.891Z,52.10
2024-05-09T17:48:10.247Z,51.61
2024-05-09T17:50:38.677Z,51.50
2024-05-09T17:53:06.806Z,52.54
2024-05-09T17:55:34.646Z,51.92
2024-05-09T17:58:02.391Z,52.93
2024-05-09T18:00:37.545Z,51.91
2024-05-09T18:03:10.520Z,53.32
2024-05-09T18:05:38.240Z,53.13
2024-05-09T18:08:06.910Z,54.61
2024-05-09T18:10:38.002Z,53.70
2024-05-09T18:13:08.699Z,54.53
2024-05-09T18:15:36.423Z,53.97
2024-05-09T18:18:04.512Z,55.37
2024-05-09T18:20:40.422Z,54.96
2024-05-09T18:23:16.607Z,55.48
2024-05-09T18:25:45.748Z,54.97
2024-05-09T18:28:13.290Z,55.90
2024-05-09T18:30:41.043Z,55.64
2024-05-09T18:33:11.405Z,56.97
2024-05-09T18:35:40.863Z,56.67
2024-05-09T18:38:09.058Z,56.62
2024-05-09T18:40:38.248Z,57.02
2024-05-09T18:43:08.209Z,57.31
2024-05-09T18:45:38.126Z,58.17
2024-05-09T18:48:07.395Z,57.69
2024-05-09T18:50:38.731Z,57.87
2024-05-09T18:53:12.736Z,58.24
2024-05-09T18:55:41.607Z,57.88
2024-05-09T18:58:08.801Z,58.75
2024-05-09T19:00:38.928Z,58.45
2024-05-09T19:03:11.254Z,58.31
2024-05-09T19:05:41.504Z,58.95
2024-05-09T19:08:09.237Z,58.54
2024-05-09T19:10:39.910Z,58.38
2024-05-09T19:13:11.956Z,58.70
2024-05-09T19:15:42.042Z,58.67
2024-05-09T19:18:10.943Z,59.20
2024-05-09T19:20:39.016Z,59.25
2024-05-09T19:23:07.274Z,59.15
2024-05-09T19:25:36.351Z,59.39
2024-05-09T19:28:05.166Z,60.09
2024-05-09T19:30:38.969Z,58.71
2024-05-09T19:33:11.235Z,60.41
2024-05-09T19:35:39.562Z,60.15
2024-05-09T19:38:07.019Z,59.22
2024-05-09T19:40:35.336Z,59.83
2024-05-09T19:43:04.733Z,60.14
2024-05-09T19:45:34.044Z,60.17
2024-05-09T19:48:02.436Z,60.31
2024-05-09T19:50:37.876Z,61.44
2024-05-09T19:53:11.339Z,61.61
2024-05-09T19:55:38.965Z,62.14
2024-05-09T19:58:07.700Z,61.34
2024-05-09T20:00:39.010Z,62.37
2024-05-09T20:03:08.727Z,62.61
2024-05-09T20:05:36.747Z,63.10
2024-05-09T20:08:04.902Z,62.52
2024-05-09T20:10:34.285Z,63.40
2024-05-09T20:13:04.691Z,63.11
2024-05-09T20:15:37.622Z,62.85
2024-05-09T20:18:06.410Z,63.00
2024-05-09T20:20:39.325Z,63.43
2024-05-09T20:23:13.111Z,63.09
2024-05-09T20:25:40.598Z,63.24
2024-05-09T20:28:07.773Z,63.41
2024-05-09T20:30:35.801Z,63.30
2024-05-09T20:33:06.960Z,63.39
2024-05-09T20:35:35.500Z,63.55
2024-05-09T20:38:03.484Z,63.58
2024-05-09T20:40:35.488Z,63.41
2024-05-09T20:43:06.797Z,63.99
2024-05-09T20:45:35.052Z,64.08
2024-05-09T20:48:02.768Z,64.25
2024-05-09T20:50:37.483Z,63.97
2024-05-09T20:53:13.099Z,64.66
2024-05-09T20:55:41.669Z,64.65
2024-05-09T20:58:10.111Z,64.76
2024-05-09T21:00:41.147Z,64.83
2024-05-09T21:03:12.688Z,65.25
2024-05-09T21:05:41.037Z,65.37
2024-05-09T21:08:08.499Z,65.03
2024-05-09T21:10:36.876Z,64.92
2024-05-09T21:13:05.257Z,65.02
2024-05-09T21:15:33.153Z,65.34
2024-05-09T21:18:00.288Z,65.49
2024-05-09T21:20:31.470Z,65.99
2024-05-09T21:23:01.312Z,65.58
2024-05-09T21:25:28.757Z,65.91
2024-05-09T21:27:55.865Z,65.76
2024-05-09T21:30:32.534Z,66.76
2024-05-09T21:33:09.632Z,66.47
2024-05-09T21:35:38.083Z,66.62
2024-05-09T21:38:05.722Z,66.99
2024-05-09T21:40:35.596Z,66.62
2024-05-09T21:43:04.837Z,67.09
2024-05-09T21:45:32.425Z,66.78
2024-05-09T21:47:59.819Z,67.29
2024-05-09T21:50:35.828Z,67.24
2024-05-09T21:53:07.139Z,67.54
2024-05-09T21:55:34.559Z,67.37
2024-05-09T21:58:01.936Z,67.58
2024-05-09T22:00:35.780Z,67.68
2024-05-09T22:03:06.232Z,67.89
2024-05-09T22:05:33.794Z,68.30
2024-05-09T22:08:01.212Z,68.46
2024-05-09T22:10:33.917Z,68.89
2024-05-09T22:13:04.450Z,68.74
2024-05-09T22:15:37.341Z,68.78
2024-05-09T22:18:07.325Z,69.20
2024-05-09T22:20:38.414Z,68.73
2024-05-09T22:23:08.271Z,68.58
2024-05-09T22:25:36.229Z,68.91
2024-05-09T22:28:03.773Z,69.28
2024-05-09T22:30:36.611Z,69.07
2024-05-09T22:33:07.604Z,68.89
2024-05-09T22:35:34.928Z,68.86
2024-05-09T22:38:05.003Z,68.93
2024-05-09T22:40:42.451Z,69.19
2024-05-09T22:43:23.079Z,69.32
2024-05-09T22:45:53.578Z,69.41
2024-05-09T22:48:21.232Z,69.60
2024-05-09T22:50:48.541Z,70.12
2024-05-09T22:53:15.963Z,70.11
2024-05-09T22:55:42.989Z,70.53
2024-05-09T22:58:10.173Z,70.81
2024-05-09T23:00:37.412Z,70.61
2024-05-09T23:03:04.691Z,70.50
2024-05-09T23:05:32.622Z,70.81
2024-05-09T23:08:01.504Z,70.79
2024-05-09T23:10:35.543Z,71.09
2024-05-09T23:13:06.728Z,70.98
2024-05-09T23:15:34.776Z,71.00
2024-05-09T23:18:02.150Z,70.82
2024-05-09T23:20:36.421Z,70.91
2024-05-09T23:23:10.865Z,70.77
2024-05-09T23:25:41.264Z,71.35
2024-05-09T23:28:08.690Z,70.77
2024-05-09T23:30:39.421Z,71.07
2024-05-09T23:33:10.601Z,71.02
2024-05-09T23:35:38.663Z,71.50
2024-05-09T23:38:05.668Z,71.60
2024-05-09T23:43:03.108Z,71.51
2024-05-09T23:45:30.827Z,71.48
2024-05-09T23:47:57.975Z,71.06
2024-05-09T23:50:33.242Z,71.08
2024-05-09T23:53:03.702Z,71.24
2024-05-09T23:55:31.546Z,71.67
2024-05-09T23:57:58.900Z,71.46
